Terminal Aerodrome Forecast
Issued by NWS

Home | Current Version | Previous Version | Text Only | Print | Product List | Glossary On
Versions: 1 2 3 4 5 6 7 8 9 10 11 12 13 14 15 16 17 18 19
000
FTUS43 KEAX 271120
TAFMKC
TAF
KMKC 271120Z 2712/2812 16010KT P6SM VCTS SCT050CB BKN080
      TEMPO 2712/2713 TSRA BKN035CB
     FM271700 17011KT P6SM SCT100
     FM280900 16007KT P6SM VCTS SCT050CB=

USA.gov is the U.S. government's official web portal to all federal, state and local government web resources and services.